Time;durP1;ratioP1;P1;durP2;ratioP2;P2;SDS_P1;SDS_P2;PMS_P1;PMS_P2;Temp;Humidity;BMP_temperature;BMP_pressure;BME280_temperature;BME280_humidity;BME280_pressure;Samples;Min_cycle;Max_cycle;Signal;HPM_P1;HPM_P2
2022/12/07 00:02:18;;;;;;;18.30;11.50;;;4.80;99.90;;;;;;5078257;28;20522;-81
2022/12/07 00:04:44;;;;;;;19.13;11.80;;;4.90;99.90;;;;;;5078322;28;20025;-81
2022/12/07 00:07:09;;;;;;;17.27;11.37;;;4.90;99.90;;;;;;5078320;28;20028;-81
2022/12/07 00:09:35;;;;;;;15.83;10.47;;;4.90;99.90;;;;;;5061690;28;20028;-81
2022/12/07 00:12:00;;;;;;;16.87;11.07;;;4.80;99.90;;;;;;5078261;28;20166;-81
2022/12/07 00:14:26;;;;;;;16.37;9.77;;;4.80;99.90;;;;;;5061837;28;20484;-81
2022/12/07 00:16:52;;;;;;;16.50;11.13;;;4.70;99.90;;;;;;5095265;28;20093;-81
2022/12/07 00:19:18;;;;;;;17.80;11.50;;;4.70;99.90;;;;;;5078224;28;20035;-81
2022/12/07 00:21:44;;;;;;;16.40;11.03;;;4.70;99.90;;;;;;5078290;28;20035;-81
2022/12/07 00:24:11;;;;;;;16.10;10.67;;;4.80;99.90;;;;;;5078368;28;20470;-81
2022/12/07 00:26:39;;;;;;;17.37;11.03;;;4.50;99.90;;;;;;5078216;28;20028;-81
2022/12/07 00:29:09;;;;;;;20.63;11.10;;;4.60;99.90;;;;;;5079465;28;20473;-81
2022/12/07 00:31:38;;;;;;;15.10;10.03;;;4.50;99.90;;;;;;5094940;28;20024;-81
2022/12/07 00:34:07;;;;;;;15.60;9.73;;;4.50;99.90;;;;;;5079281;28;20480;-81
2022/12/07 00:36:33;;;;;;;19.63;11.37;;;4.40;99.90;;;;;;5078078;28;20029;-81
2022/12/07 00:39:00;;;;;;;16.57;10.80;;;4.40;99.90;;;;;;5094864;28;20085;-81
2022/12/07 00:41:27;;;;;;;17.00;10.93;;;4.30;99.90;;;;;;5079428;28;20019;-81
2022/12/07 00:43:53;;;;;;;16.17;10.87;;;4.30;99.90;;;;;;5079473;28;20021;-81
2022/12/07 00:46:20;;;;;;;18.07;11.23;;;4.30;99.90;;;;;;5079096;28;20049;-81
2022/12/07 00:48:47;;;;;;;17.03;10.50;;;4.30;99.90;;;;;;5094963;28;20048;-81
2022/12/07 00:51:14;;;;;;;17.80;11.50;;;4.20;99.90;;;;;;5094615;28;20070;-81
2022/12/07 00:53:40;;;;;;;15.43;10.50;;;4.30;99.90;;;;;;5091108;28;20028;-80
2022/12/07 00:56:07;;;;;;;16.00;10.50;;;4.10;99.90;;;;;;5076083;28;20154;-81
2022/12/07 00:58:33;;;;;;;18.37;10.33;;;4.10;99.90;;;;;;5091762;28;20103;-81
2022/12/07 01:01:03;;;;;;;19.50;11.40;;;4.10;99.90;;;;;;5074889;28;20024;-80
2022/12/07 01:03:29;;;;;;;17.83;10.60;;;4.10;99.90;;;;;;5076012;28;20025;-81
2022/12/07 01:05:55;;;;;;;15.70;11.10;;;4.10;99.90;;;;;;5057917;28;20032;-81
2022/12/07 01:08:22;;;;;;;18.37;11.10;;;4.00;99.90;;;;;;5057997;28;20028;-81
2022/12/07 01:10:49;;;;;;;18.53;11.23;;;4.00;99.90;;;;;;5074572;28;20029;-80
2022/12/07 01:13:16;;;;;;;17.10;10.63;;;3.90;99.90;;;;;;5074441;28;20503;-81
2022/12/07 01:15:43;;;;;;;14.80;10.83;;;3.90;99.90;;;;;;5091624;28;20381;-81
2022/12/07 01:18:09;;;;;;;20.50;11.17;;;3.90;99.90;;;;;;5074919;28;20434;-80
2022/12/07 01:20:34;;;;;;;16.33;11.27;;;3.90;99.90;;;;;;5076026;28;20021;-81
2022/12/07 01:23:00;;;;;;;19.07;10.83;;;3.80;99.90;;;;;;5077021;28;20024;-81
2022/12/07 01:25:26;;;;;;;14.97;10.13;;;3.90;99.90;;;;;;5082922;28;20021;-80
2022/12/07 01:27:51;;;;;;;17.47;11.30;;;3.70;99.90;;;;;;5088844;28;20020;-80
2022/12/07 01:30:17;;;;;;;17.53;10.50;;;3.70;99.90;;;;;;5061479;28;20028;-81
2022/12/07 01:32:43;;;;;;;16.50;10.50;;;3.70;99.90;;;;;;5075912;28;20048;-80
2022/12/07 01:35:08;;;;;;;16.13;10.70;;;3.70;99.90;;;;;;5075085;28;20108;-81
2022/12/07 01:37:38;;;;;;;19.50;11.07;;;3.60;99.90;;;;;;5059143;28;20043;-79
2022/12/07 01:40:06;;;;;;;18.87;11.40;;;3.60;99.90;;;;;;5079546;28;20091;-81
2022/12/07 01:42:32;;;;;;;15.20;10.57;;;3.60;99.90;;;;;;5094782;28;20024;-80
2022/12/07 01:45:28;;;;;;;14.50;10.27;;;3.60;99.90;;;;;;5079273;28;20025;-79
2022/12/07 01:47:56;;;;;;;15.80;10.10;;;3.50;99.90;;;;;;5094811;28;20036;-80
2022/12/07 01:50:25;;;;;;;14.50;9.60;;;3.50;99.90;;;;;;5078139;28;20052;-80
2022/12/07 01:52:53;;;;;;;14.97;10.40;;;3.50;99.90;;;;;;5090468;28;20373;-80
2022/12/07 01:55:20;;;;;;;18.00;10.70;;;3.50;99.90;;;;;;5074057;28;20025;-80
2022/12/07 01:57:50;;;;;;;15.80;10.33;;;3.50;99.90;;;;;;5075022;28;20048;-80
2022/12/07 02:00:17;;;;;;;17.33;10.67;;;3.50;99.90;;;;;;5074666;28;20025;-80
2022/12/07 02:03:00;;;;;;;16.83;10.53;;;3.40;99.90;;;;;;5074567;28;20081;-82
2022/12/07 02:05:27;;;;;;;15.25;9.88;;;3.40;99.90;;;;;;5089488;28;20115;-82
2022/12/07 02:07:55;;;;;;;19.07;10.37;;;3.30;99.90;;;;;;5073346;28;20016;-82
2022/12/07 02:10:28;;;;;;;16.53;9.87;;;3.30;99.90;;;;;;5074421;28;20031;-82
2022/12/07 02:12:58;;;;;;;15.83;10.47;;;3.30;99.90;;;;;;5074512;28;20027;-82
2022/12/07 02:15:34;;;;;;;17.80;11.03;;;3.30;99.90;;;;;;5073096;28;20365;-80
2022/12/07 02:17:59;;;;;;;16.53;9.83;;;3.30;99.90;;;;;;5089961;28;20029;-80
2022/12/07 02:20:39;;;;;;;14.93;9.67;;;3.30;99.90;;;;;;5074340;28;20396;-80
2022/12/07 02:23:26;;;;;;;15.23;9.27;;;3.20;99.90;;;;;;5074252;28;20071;-81
2022/12/07 02:25:58;;;;;;;14.80;9.50;;;3.20;99.90;;;;;;5074364;28;20070;-81
2022/12/07 02:28:39;;;;;;;15.27;9.37;;;3.20;99.90;;;;;;5089664;28;20028;-80
2022/12/07 02:31:18;;;;;;;17.23;10.10;;;3.10;99.90;;;;;;5072971;28;20017;-81
2022/12/07 02:33:54;;;;;;;18.37;9.30;;;3.10;99.90;;;;;;5074098;28;20098;-80
2022/12/07 02:36:19;;;;;;;14.97;8.67;;;3.10;99.90;;;;;;5072700;28;20423;-81
2022/12/07 02:39:01;;;;;;;15.90;8.57;;;3.00;99.90;;;;;;5073888;28;20040;-81
2022/12/07 02:41:33;;;;;;;13.07;8.63;;;3.10;99.90;;;;;;5072672;28;20036;-81
2022/12/07 02:44:03;;;;;;;16.17;9.17;;;3.00;99.90;;;;;;5073902;28;20024;-81
2022/12/07 02:46:35;;;;;;;14.70;9.30;;;3.00;99.90;;;;;;5073650;28;20056;-81
2022/12/07 02:49:02;;;;;;;17.07;9.47;;;3.00;99.90;;;;;;5072522;28;20071;-80
2022/12/07 02:51:31;;;;;;;19.23;9.60;;;2.90;99.90;;;;;;5089405;28;20032;-81
2022/12/07 02:53:57;;;;;;;18.23;8.90;;;2.90;99.90;;;;;;5072594;28;20032;-81
2022/12/07 02:56:35;;;;;;;15.40;8.23;;;2.90;99.90;;;;;;5072456;28;20366;-81
2022/12/07 02:59:28;;;;;;;14.47;9.13;;;3.00;99.90;;;;;;5073717;28;20036;-80
2022/12/07 03:02:25;;;;;;;15.77;8.00;;;2.90;99.90;;;;;;5089183;28;20024;-81
2022/12/07 03:05:15;;;;;;;14.50;8.97;;;2.90;99.90;;;;;;5089395;28;20087;-80
2022/12/07 03:07:51;;;;;;;15.73;8.13;;;2.90;99.90;;;;;;5072303;28;20487;-81
2022/12/07 03:10:22;;;;;;;16.57;7.93;;;2.90;99.90;;;;;;5072369;28;20028;-80
2022/12/07 03:12:51;;;;;;;14.57;8.23;;;3.00;99.90;;;;;;5089091;28;20040;-80
2022/12/07 03:15:42;;;;;;;15.90;8.57;;;3.00;99.90;;;;;;5088395;28;20070;-81
2022/12/07 03:18:11;;;;;;;16.97;7.87;;;3.00;99.90;;;;;;5073313;28;20064;-80
2022/12/07 03:20:39;;;;;;;18.13;7.53;;;3.10;99.90;;;;;;5088601;28;20035;-81
2022/12/07 03:23:09;;;;;;;12.03;6.27;;;3.10;99.90;;;;;;5072034;28;20025;-80
2022/12/07 03:25:40;;;;;;;11.83;6.00;;;3.10;99.90;;;;;;5072130;28;20473;-81
2022/12/07 03:28:07;;;;;;;14.43;7.47;;;3.20;99.90;;;;;;5072206;28;20035;-80
2022/12/07 03:30:35;;;;;;;14.77;6.67;;;3.20;99.90;;;;;;5073288;28;20450;-81
2022/12/07 03:33:17;;;;;;;11.57;6.70;;;3.20;99.90;;;;;;5071794;28;20068;-81
2022/12/07 03:35:51;;;;;;;14.67;5.90;;;3.30;99.90;;;;;;5072016;28;20020;-80
2022/12/07 03:38:46;;;;;;;11.88;5.68;;;3.30;99.90;;;;;;5071790;28;20024;-81
2022/12/07 03:41:16;;;;;;;;;;;3.40;99.90;;;;;;5057335;28;20408;-81
2022/12/07 03:43:42;;;;;;;11.63;5.23;;;3.40;99.90;;;;;;5088602;28;19904;-80
2022/12/07 03:46:26;;;;;;;11.67;5.03;;;3.40;99.90;;;;;;5054940;28;20090;-81
2022/12/07 03:48:59;;;;;;;14.02;5.57;;;3.50;99.90;;;;;;5088662;28;20384;-81
2022/12/07 03:51:47;;;;;;;14.43;5.23;;;3.60;99.90;;;;;;5088616;28;20028;-81
2022/12/07 03:54:29;;;;;;;11.63;5.23;;;3.60;99.90;;;;;;5072993;28;20028;-81
2022/12/07 03:56:57;;;;;;;13.37;5.37;;;3.70;99.90;;;;;;5072823;28;20028;-81
2022/12/07 03:59:23;;;;;;;10.90;5.33;;;3.70;99.90;;;;;;5071283;28;20512;-80
2022/12/07 04:01:57;;;;;;;9.70;5.17;;;3.70;99.90;;;;;;5072933;28;20025;-76
2022/12/07 04:04:26;;;;;;;11.70;5.70;;;3.70;99.90;;;;;;5071613;28;20056;-76
2022/12/07 04:06:51;;;;;;;10.03;5.23;;;3.70;99.90;;;;;;5071492;28;20090;-76
2022/12/07 04:09:17;;;;;;;10.83;5.77;;;3.70;99.90;;;;;;5071341;28;20115;-77
2022/12/07 04:11:43;;;;;;;11.23;5.80;;;3.70;99.90;;;;;;5088415;28;20082;-77
2022/12/07 04:14:18;;;;;;;10.10;5.53;;;3.70;99.90;;;;;;5088096;28;20025;-77
2022/12/07 04:16:44;;;;;;;8.37;5.30;;;3.70;99.90;;;;;;5072754;28;20511;-76
2022/12/07 04:19:10;;;;;;;11.43;5.40;;;3.70;99.90;;;;;;5088275;28;20028;-76
2022/12/07 04:21:36;;;;;;;11.87;6.03;;;3.80;99.90;;;;;;5088263;28;20047;-76
2022/12/07 04:24:01;;;;;;;12.13;5.27;;;3.70;99.90;;;;;;5071405;28;20392;-76
2022/12/07 04:26:27;;;;;;;15.50;5.87;;;3.70;99.90;;;;;;5088151;28;20381;-76
2022/12/07 04:28:53;;;;;;;10.50;5.23;;;3.70;99.90;;;;;;5058082;28;20036;-77
2022/12/07 04:31:18;;;;;;;12.83;5.60;;;3.70;99.90;;;;;;5092086;28;20051;-77
2022/12/07 04:33:44;;;;;;;12.50;5.20;;;3.60;99.90;;;;;;5075048;28;20543;-76
2022/12/07 04:36:09;;;;;;;10.27;5.20;;;3.60;99.90;;;;;;5075112;28;20025;-77
2022/12/07 04:38:35;;;;;;;15.43;5.47;;;3.60;99.90;;;;;;5074786;28;20447;-77
2022/12/07 04:41:09;;;;;;;12.77;6.27;;;3.60;99.90;;;;;;5058367;28;20078;-77
2022/12/07 04:43:35;;;;;;;7.80;5.03;;;3.60;99.90;;;;;;5091734;28;20036;-77
2022/12/07 04:46:01;;;;;;;7.93;4.90;;;3.60;99.90;;;;;;5091540;28;20048;-77
2022/12/07 04:48:28;;;;;;;10.50;5.37;;;3.60;99.90;;;;;;5074671;28;20071;-77
2022/12/07 04:50:54;;;;;;;9.43;5.30;;;3.60;99.90;;;;;;5074921;28;20114;-77
2022/12/07 04:53:20;;;;;;;11.13;5.00;;;3.60;99.90;;;;;;5074863;28;20472;-77
2022/12/07 04:55:45;;;;;;;14.97;6.60;;;3.60;99.90;;;;;;5094701;28;20024;-77
2022/12/07 04:58:12;;;;;;;15.33;6.17;;;3.60;99.90;;;;;;5076556;28;20468;-76
2022/12/07 05:00:38;;;;;;;11.70;5.50;;;3.70;99.90;;;;;;5077470;28;20020;-76
2022/12/07 05:03:03;;;;;;;12.13;6.03;;;3.60;99.90;;;;;;5095078;28;20028;-76
2022/12/07 05:05:29;;;;;;;12.13;5.70;;;3.70;99.90;;;;;;5094655;28;20166;-76
2022/12/07 05:07:54;;;;;;;11.30;5.83;;;3.60;99.90;;;;;;5077884;28;20024;-77
2022/12/07 05:10:21;;;;;;;10.73;6.10;;;3.60;99.90;;;;;;5076338;28;20024;-76
2022/12/07 05:12:47;;;;;;;13.47;5.93;;;3.60;99.90;;;;;;5089557;28;20020;-77
2022/12/07 05:15:13;;;;;;;12.03;5.80;;;3.60;99.90;;;;;;5076987;28;20034;-76
2022/12/07 05:17:39;;;;;;;11.47;5.07;;;3.70;99.90;;;;;;5094229;28;20456;-76
2022/12/07 05:20:05;;;;;;;10.93;4.73;;;3.60;99.90;;;;;;5077336;28;20032;-77
2022/12/07 05:22:31;;;;;;;10.03;5.17;;;3.60;99.90;;;;;;5082218;28;20025;-76
2022/12/07 05:24:57;;;;;;;12.47;4.77;;;3.60;99.90;;;;;;5090422;28;20036;-77
2022/12/07 05:27:23;;;;;;;10.67;5.43;;;3.60;99.90;;;;;;5089710;28;20090;-77
2022/12/07 05:29:50;;;;;;;11.53;5.20;;;3.50;99.90;;;;;;5074050;28;20552;-77
2022/12/07 05:32:16;;;;;;;11.13;5.53;;;3.60;99.90;;;;;;5073808;28;20025;-76
2022/12/07 05:34:41;;;;;;;8.63;4.07;;;3.50;99.90;;;;;;5090698;28;20032;-77
2022/12/07 05:37:07;;;;;;;12.83;5.83;;;3.50;99.90;;;;;;5090628;28;20029;-77
2022/12/07 05:39:33;;;;;;;11.83;5.67;;;3.50;99.90;;;;;;5090336;28;20108;-76
2022/12/07 05:42:13;;;;;;;10.13;5.60;;;3.40;99.90;;;;;;5073879;28;20481;-77
2022/12/07 05:44:46;;;;;;;9.43;6.00;;;3.40;99.90;;;;;;5088823;28;20029;-77
2022/12/07 05:47:12;;;;;;;15.60;4.90;;;3.40;99.90;;;;;;5073625;28;20031;-77
2022/12/07 05:49:38;;;;;;;9.70;5.00;;;3.40;99.90;;;;;;5073592;28;20037;-77
2022/12/07 05:52:04;;;;;;;8.57;4.97;;;3.40;99.90;;;;;;5074004;28;20411;-77
2022/12/07 05:54:30;;;;;;;13.20;5.13;;;3.40;99.90;;;;;;5073553;28;20027;-77
2022/12/07 05:56:57;;;;;;;13.23;4.57;;;3.30;99.90;;;;;;5073514;28;20029;-77
2022/12/07 05:59:23;;;;;;;11.43;4.93;;;3.30;99.90;;;;;;5073338;28;20142;-77
2022/12/07 06:01:54;;;;;;;9.43;4.70;;;3.30;99.90;;;;;;5074571;28;20484;-77
2022/12/07 06:04:20;;;;;;;11.70;5.20;;;3.30;99.90;;;;;;5074714;28;20036;-77
2022/12/07 06:06:46;;;;;;;10.47;4.80;;;3.30;99.90;;;;;;5073247;28;20020;-77
2022/12/07 06:09:12;;;;;;;10.67;4.60;;;3.20;99.90;;;;;;5073262;28;20021;-77
2022/12/07 06:14:23;;;;;;;10.23;4.67;;;3.20;99.90;;;;;;5074684;28;20031;-77
2022/12/07 06:16:49;;;;;;;11.07;4.73;;;3.20;99.90;;;;;;5089833;28;20036;-77
2022/12/07 06:19:14;;;;;;;12.27;4.70;;;3.20;99.90;;;;;;5072971;28;20090;-77
2022/12/07 06:21:41;;;;;;;8.23;4.30;;;3.20;99.90;;;;;;5073083;28;20086;-77
2022/12/07 06:24:07;;;;;;;9.97;4.67;;;3.20;99.90;;;;;;5073005;28;20021;-77
2022/12/07 06:26:35;;;;;;;10.47;5.40;;;3.20;99.90;;;;;;5073007;28;20020;-77
2022/12/07 06:29:01;;;;;;;11.37;4.57;;;3.30;99.90;;;;;;5089601;28;20040;-77
2022/12/07 06:31:26;;;;;;;8.73;4.40;;;3.20;99.90;;;;;;5072693;28;20086;-77
2022/12/07 06:33:58;;;;;;;14.20;4.87;;;3.30;99.90;;;;;;5089701;28;20397;-77
2022/12/07 06:36:23;;;;;;;11.87;4.33;;;3.20;99.90;;;;;;5073994;28;20107;-77
2022/12/07 06:38:49;;;;;;;15.47;4.97;;;3.30;99.90;;;;;;5072778;28;20457;-77
2022/12/07 06:41:14;;;;;;;8.77;4.50;;;3.20;99.90;;;;;;5072625;28;20027;-77
2022/12/07 06:43:41;;;;;;;8.97;4.43;;;3.20;99.90;;;;;;5072553;28;20029;-77
2022/12/07 06:46:07;;;;;;;8.97;3.83;;;3.20;99.90;;;;;;5072122;28;20059;-77
2022/12/07 06:48:33;;;;;;;11.80;4.20;;;3.20;99.90;;;;;;5072512;28;20025;-77
2022/12/07 06:50:59;;;;;;;12.47;4.47;;;3.20;99.90;;;;;;5071693;28;20025;-77
2022/12/07 06:53:25;;;;;;;13.17;4.77;;;3.20;99.90;;;;;;5072349;28;20491;-77
2022/12/07 06:55:50;;;;;;;10.53;4.03;;;3.20;99.90;;;;;;5073587;28;20086;-77
2022/12/07 06:58:17;;;;;;;14.37;4.73;;;3.20;99.90;;;;;;5072292;28;20085;-77
2022/12/07 07:00:43;;;;;;;8.87;3.47;;;3.20;99.90;;;;;;5072193;28;20107;-78
2022/12/07 07:03:09;;;;;;;10.33;3.83;;;3.30;99.90;;;;;;5089116;28;20107;-78
2022/12/07 07:05:35;;;;;;;11.47;4.27;;;3.30;99.90;;;;;;5072163;28;20144;-77
2022/12/07 07:08:02;;;;;;;12.07;3.70;;;3.30;99.90;;;;;;5072082;28;20440;-77
2022/12/07 07:10:28;;;;;;;13.13;4.33;;;3.30;99.90;;;;;;5088931;28;20029;-77
2022/12/07 07:12:53;;;;;;;6.57;3.43;;;3.30;99.90;;;;;;5072096;28;20502;-77
2022/12/07 07:15:19;;;;;;;7.63;3.73;;;3.40;99.90;;;;;;5088902;28;20032;-77
2022/12/07 07:17:45;;;;;;;13.33;3.73;;;3.30;99.90;;;;;;5071979;28;20026;-78
2022/12/07 07:20:11;;;;;;;16.03;4.87;;;3.30;99.90;;;;;;5088681;28;20055;-77
2022/12/07 07:22:36;;;;;;;11.80;3.43;;;3.30;99.90;;;;;;5071667;28;20032;-78
2022/12/07 07:25:02;;;;;;;11.30;2.93;;;3.30;99.90;;;;;;5071576;28;20032;-78
2022/12/07 07:27:28;;;;;;;9.63;2.47;;;3.30;99.90;;;;;;5088587;28;20054;-77
2022/12/07 07:29:54;;;;;;;11.77;3.77;;;3.30;99.90;;;;;;5073072;28;20469;-78
2022/12/07 07:32:21;;;;;;;10.43;3.40;;;3.30;99.90;;;;;;5071754;28;20033;-78
2022/12/07 07:34:47;;;;;;;10.80;3.30;;;3.30;99.90;;;;;;5071896;28;20025;-77
2022/12/07 07:37:13;;;;;;;10.23;2.30;;;3.30;99.90;;;;;;5071789;28;20028;-78
2022/12/07 07:39:38;;;;;;;9.10;2.63;;;3.30;99.90;;;;;;5088831;28;20082;-77
2022/12/07 07:42:04;;;;;;;9.63;2.90;;;3.30;99.90;;;;;;5094782;28;20040;-78
2022/12/07 07:44:30;;;;;;;8.37;3.13;;;3.30;99.90;;;;;;5056435;28;20453;-78
2022/12/07 07:46:56;;;;;;;13.13;3.10;;;3.30;99.90;;;;;;5088916;28;20052;-78
2022/12/07 07:49:25;;;;;;;11.07;3.27;;;3.20;99.90;;;;;;5090071;28;20068;-78
2022/12/07 07:51:50;;;;;;;6.77;2.70;;;3.20;99.90;;;;;;5084739;28;20032;-78
2022/12/07 07:54:16;;;;;;;10.23;4.33;;;3.20;99.90;;;;;;5094868;28;20100;-78
2022/12/07 07:56:42;;;;;;;10.97;2.90;;;3.20;99.90;;;;;;5101118;28;20025;-77
2022/12/07 07:59:08;;;;;;;8.20;3.03;;;3.20;99.90;;;;;;5091005;28;20396;-77
2022/12/07 08:01:33;;;;;;;11.33;3.70;;;3.10;99.90;;;;;;5092419;28;20540;-79
2022/12/07 08:03:59;;;;;;;10.03;2.80;;;3.10;99.90;;;;;;5094982;28;20158;-79
2022/12/07 08:06:25;;;;;;;10.20;3.33;;;3.10;99.90;;;;;;5097318;28;20031;-79
2022/12/07 08:08:50;;;;;;;8.53;2.83;;;3.10;99.90;;;;;;5096158;28;20081;-77
2022/12/07 08:11:16;;;;;;;9.43;2.90;;;3.20;99.90;;;;;;5096123;28;20090;-79
2022/12/07 08:13:44;;;;;;;9.13;2.83;;;3.10;99.90;;;;;;5095306;28;20031;-78
2022/12/07 08:16:11;;;;;;;10.27;2.90;;;3.10;99.90;;;;;;5095891;28;20403;-78
2022/12/07 08:18:38;;;;;;;8.07;2.50;;;3.20;99.90;;;;;;5095659;28;20415;-77
2022/12/07 08:21:04;;;;;;;14.23;3.07;;;3.20;99.90;;;;;;5095465;28;20047;-78
2022/12/07 08:23:31;;;;;;;8.97;2.37;;;3.20;99.90;;;;;;5078635;28;20020;-78
2022/12/07 08:26:16;;;;;;;10.17;3.00;;;3.30;99.90;;;;;;5111811;28;20423;-78
2022/12/07 08:28:42;;;;;;;12.60;2.63;;;3.20;99.90;;;;;;5093818;28;20043;-78
2022/12/07 08:31:14;;;;;;;9.03;2.30;;;3.20;99.90;;;;;;5095893;28;20111;-78
2022/12/07 08:33:40;;;;;;;14.97;2.93;;;3.30;99.90;;;;;;5112215;28;20027;-79
2022/12/07 08:36:09;;;;;;;7.27;2.13;;;3.40;99.90;;;;;;5095170;28;20036;-77
2022/12/07 08:38:36;;;;;;;17.50;2.87;;;3.50;99.90;;;;;;5095184;28;20020;-77
2022/12/07 08:41:01;;;;;;;8.43;2.33;;;3.50;99.90;;;;;;5096455;28;20032;-78
2022/12/07 08:43:27;;;;;;;9.57;2.30;;;3.60;99.90;;;;;;5095109;28;20029;-79
2022/12/07 08:46:18;;;;;;;7.03;2.17;;;3.70;99.90;;;;;;5078131;28;20040;-78
2022/12/07 08:48:58;;;;;;;9.30;2.67;;;3.80;99.90;;;;;;5086710;28;20044;-79
2022/12/07 08:51:23;;;;;;;6.70;1.80;;;3.90;99.90;;;;;;5089961;28;20055;-79
2022/12/07 08:53:52;;;;;;;6.57;2.60;;;4.00;99.90;;;;;;5096362;28;20493;-79
2022/12/07 08:56:18;;;;;;;12.87;3.40;;;4.10;99.90;;;;;;5096294;28;20158;-79
2022/12/07 08:58:44;;;;;;;7.87;2.03;;;4.10;99.90;;;;;;5094959;28;20047;-81
2022/12/07 09:01:10;;;;;;;10.53;2.20;;;4.20;99.90;;;;;;5096265;28;20024;-81
2022/12/07 09:03:36;;;;;;;8.97;2.17;;;4.20;99.90;;;;;;5078014;28;20365;-81
2022/12/07 09:06:02;;;;;;;5.53;1.93;;;4.30;99.90;;;;;;5094436;28;20032;-81
2022/12/07 09:08:35;;;;;;;8.57;1.63;;;4.40;99.90;;;;;;5094859;28;20476;-81
2022/12/07 09:11:01;;;;;;;8.43;2.13;;;4.50;99.90;;;;;;5095903;28;20032;-81
2022/12/07 09:13:26;;;;;;;8.90;1.73;;;4.50;99.90;;;;;;5077058;28;20042;-81
2022/12/07 09:15:52;;;;;;;8.13;1.73;;;4.60;99.90;;;;;;5094449;28;20045;-83
2022/12/07 09:18:18;;;;;;;9.17;1.33;;;4.60;99.90;;;;;;5092985;28;20063;-82
2022/12/07 09:20:43;;;;;;;7.20;1.43;;;4.60;99.90;;;;;;5093921;28;20505;-82
2022/12/07 09:23:09;;;;;;;8.53;1.67;;;4.70;99.90;;;;;;5093475;28;20021;-83
2022/12/07 09:25:35;;;;;;;9.80;1.60;;;4.80;99.90;;;;;;5094500;28;20024;-82
2022/12/07 09:28:00;;;;;;;4.70;1.40;;;5.00;99.90;;;;;;5094455;28;20035;-82
2022/12/07 09:30:27;;;;;;;7.13;1.83;;;5.30;99.90;;;;;;5094364;28;20021;-82
2022/12/07 09:32:54;;;;;;;7.30;1.57;;;5.80;99.90;;;;;;5111379;28;20043;-82
2022/12/07 09:35:20;;;;;;;6.60;1.60;;;6.00;99.90;;;;;;5111397;28;20027;-82
2022/12/07 09:37:46;;;;;;;8.90;1.60;;;6.30;99.90;;;;;;5095532;28;20020;-82
2022/12/07 09:40:12;;;;;;;6.20;1.20;;;6.60;99.90;;;;;;5094104;28;20472;-83
2022/12/07 09:42:41;;;;;;;6.77;1.20;;;7.20;99.90;;;;;;5094181;28;20024;-82
2022/12/07 09:45:14;;;;;;;4.60;0.93;;;7.90;99.90;;;;;;5094136;28;20027;-83
2022/12/07 09:47:39;;;;;;;5.82;0.85;;;8.60;99.90;;;;;;5110898;28;20081;-83
2022/12/07 09:50:12;;;;;;;7.88;1.83;;;9.20;99.90;;;;;;5094007;28;20024;-83
2022/12/07 09:52:38;;;;;;;5.28;1.35;;;9.80;99.90;;;;;;5111337;28;20422;-83
2022/12/07 09:55:09;;;;;;;6.57;1.00;;;10.30;99.90;;;;;;5076980;28;20487;-83
2022/12/07 09:57:36;;;;;;;6.78;1.20;;;10.40;99.90;;;;;;5095016;28;20028;-83
2022/12/07 10:00:11;;;;;;;5.13;1.27;;;10.30;99.90;;;;;;5093673;28;20028;-83
2022/12/07 10:02:47;;;;;;;7.57;1.35;;;10.10;99.90;;;;;;5094925;28;20056;-82
2022/12/07 10:05:26;;;;;;;3.80;1.00;;;9.80;99.90;;;;;;5110550;28;20116;-82
2022/12/07 10:07:51;;;;;;;5.35;1.35;;;9.80;99.90;;;;;;5094703;28;20482;-82
2022/12/07 10:10:31;;;;;;;5.90;1.10;;;9.90;99.90;;;;;;5076737;28;20127;-82
2022/12/07 10:13:03;;;;;;;4.40;1.05;;;10.10;99.90;;;;;;5110557;28;20093;-83
2022/12/07 10:15:54;;;;;;;6.82;1.63;;;10.30;99.90;;;;;;5094515;28;20403;-83
2022/12/07 10:18:43;;;;;;;7.00;1.77;;;10.20;99.30;;;;;;5094602;28;20488;-82
2022/12/07 10:21:28;;;;;;;7.57;1.40;;;10.00;97.30;;;;;;5093473;28;20027;-82
2022/12/07 10:24:14;;;;;;;6.90;1.15;;;9.70;96.70;;;;;;5110383;28;20051;-83
2022/12/07 10:26:47;;;;;;;5.03;1.48;;;9.70;97.50;;;;;;5109758;28;20472;-83
2022/12/07 10:29:21;;;;;;;5.60;1.52;;;9.70;96.90;;;;;;5110125;28;20028;-82
2022/12/07 10:31:58;;;;;;;7.15;1.40;;;9.70;96.00;;;;;;5110099;28;20032;-83
2022/12/07 10:34:33;;;;;;;10.27;2.55;;;9.60;95.10;;;;;;5109966;28;20047;-83
2022/12/07 10:37:17;;;;;;;4.30;0.80;;;9.40;94.80;;;;;;5093011;28;20020;-82
2022/12/07 10:40:01;;;;;;;4.70;1.08;;;9.20;94.30;;;;;;5109871;28;20472;-82
2022/12/07 10:42:51;;;;;;;;;;;9.10;94.20;;;;;;5093367;28;20028;-83
2022/12/07 10:45:34;;;;;;;6.25;1.25;;;9.30;95.10;;;;;;5092542;28;19951;-82
2022/12/07 10:48:37;;;;;;;6.03;1.20;;;9.60;95.50;;;;;;5077370;28;20036;-83
2022/12/07 10:51:41;;;;;;;6.65;1.10;;;9.70;95.10;;;;;;5092769;28;20020;-82
2022/12/07 10:54:10;;;;;;;2.78;0.75;;;9.90;94.90;;;;;;5094099;28;20035;-81
2022/12/07 10:56:50;;;;;;;6.50;1.35;;;10.50;96.10;;;;;;5109638;28;20028;-82
2022/12/07 10:59:15;;;;;;;4.35;0.75;;;11.00;95.70;;;;;;5094084;28;20024;-82
2022/12/07 11:02:08;;;;;;;5.43;0.60;;;11.40;94.20;;;;;;5109419;28;20468;-82
2022/12/07 11:05:13;;;;;;;5.18;0.85;;;11.70;93.30;;;;;;5092585;28;20031;-82
2022/12/07 11:07:42;;;;;;;6.00;0.80;;;11.60;91.70;;;;;;5082362;28;20395;-82
2022/12/07 11:10:10;;;;;;;7.40;1.08;;;11.40;88.30;;;;;;5109377;28;20468;-82
2022/12/07 11:12:55;;;;;;;4.35;0.80;;;11.20;87.30;;;;;;5093706;28;20487;-81
2022/12/07 11:15:42;;;;;;;6.85;0.93;;;10.90;86.60;;;;;;5109298;28;20038;-81
2022/12/07 11:18:27;;;;;;;9.07;1.30;;;10.70;86.30;;;;;;5092246;28;20089;-82
2022/12/07 11:21:10;;;;;;;9.00;1.33;;;10.40;85.90;;;;;;5109390;28;20036;-82
2022/12/07 11:24:05;;;;;;;5.78;1.23;;;10.20;86.50;;;;;;5109297;28;20028;-80
2022/12/07 11:26:57;;;;;;;6.20;1.10;;;10.00;86.80;;;;;;5108750;28;20024;-80
2022/12/07 11:30:11;;;;;;;6.53;1.30;;;10.00;86.80;;;;;;5093507;28;20020;-80
2022/12/07 11:32:45;;;;;;;3.25;0.90;;;10.00;87.90;;;;;;5087093;28;20032;-80
2022/12/07 11:35:40;;;;;;;4.88;1.00;;;10.30;88.90;;;;;;5093066;28;20028;-80
2022/12/07 11:38:21;;;;;;;;;;;10.50;89.30;;;;;;5084702;28;20468;-80
2022/12/07 11:40:51;;;;;;;8.07;1.52;;;10.70;88.50;;;;;;5091986;28;20415;-80
2022/12/07 11:43:34;;;;;;;6.88;1.27;;;10.90;88.90;;;;;;5108961;28;20027;-80
2022/12/07 11:46:12;;;;;;;4.60;1.05;;;11.00;86.80;;;;;;5108724;28;20127;-80
2022/12/07 11:48:54;;;;;;;4.88;0.98;;;10.80;84.70;;;;;;5108915;28;20009;-81
2022/12/07 11:51:22;;;;;;;4.25;1.23;;;10.60;83.70;;;;;;5093251;28;20055;-81
2022/12/07 11:54:02;;;;;;;7.80;1.15;;;10.40;83.50;;;;;;5108761;28;20078;-81
2022/12/07 11:56:36;;;;;;;7.33;1.13;;;10.30;83.90;;;;;;5092815;28;20529;-81
2022/12/07 11:59:16;;;;;;;5.43;0.80;;;10.50;85.60;;;;;;5093070;28;20464;-80
2022/12/07 12:01:56;;;;;;;3.03;0.90;;;10.80;86.10;;;;;;5108842;28;20042;-81
2022/12/07 12:04:32;;;;;;;4.97;0.98;;;11.20;85.80;;;;;;5093107;28;20028;-80
2022/12/07 12:06:58;;;;;;;8.10;1.20;;;11.30;85.10;;;;;;5108707;28;20111;-80
2022/12/07 12:09:30;;;;;;;4.68;1.08;;;11.50;85.30;;;;;;5092914;28;20050;-81
2022/12/07 12:12:31;;;;;;;5.47;0.80;;;11.50;84.10;;;;;;5093873;28;20059;-83
2022/12/07 12:15:23;;;;;;;5.00;0.80;;;11.50;82.10;;;;;;5092944;28;20043;-82
2022/12/07 12:18:04;;;;;;;3.40;0.98;;;11.20;81.20;;;;;;5108759;28;20031;-83
2022/12/07 12:20:36;;;;;;;5.85;1.15;;;10.90;81.10;;;;;;5108848;28;20050;-82
2022/12/07 12:23:12;;;;;;;6.07;1.60;;;10.60;80.80;;;;;;5108545;28;20062;-83
2022/12/07 12:25:50;;;;;;;6.03;1.13;;;10.30;81.60;;;;;;5091725;28;20016;-82
2022/12/07 12:28:25;;;;;;;6.83;1.40;;;10.30;82.40;;;;;;5108475;28;20028;-84
2022/12/07 12:31:32;;;;;;;5.18;1.00;;;10.30;82.60;;;;;;5108585;28;20115;-83
2022/12/07 12:34:04;;;;;;;3.38;0.98;;;10.60;83.70;;;;;;5108104;28;20133;-82
2022/12/07 12:36:41;;;;;;;6.47;0.70;;;11.20;85.40;;;;;;5091593;28;20088;-82
2022/12/07 12:39:07;;;;;;;7.38;0.90;;;11.90;85.90;;;;;;5108276;28;20077;-81
2022/12/07 12:41:36;;;;;;;4.60;0.80;;;12.60;84.30;;;;;;5108404;28;20119;-82
2022/12/07 12:44:22;;;;;;;6.57;0.82;;;13.20;83.60;;;;;;5108432;28;20040;-83
2022/12/07 12:46:58;;;;;;;6.43;1.00;;;13.90;82.20;;;;;;5089781;28;20100;-82
2022/12/07 12:49:24;;;;;;;4.70;0.88;;;14.40;80.60;;;;;;5091415;28;20024;-82
2022/12/07 12:51:53;;;;;;;4.50;0.80;;;14.90;78.20;;;;;;5084959;28;20162;-84
2022/12/07 12:54:27;;;;;;;6.43;1.25;;;15.20;74.80;;;;;;5076132;28;20029;-84
2022/12/07 12:56:58;;;;;;;5.38;1.00;;;15.50;73.40;;;;;;5076182;28;20131;-84
2022/12/07 12:59:29;;;;;;;4.35;0.80;;;15.80;72.60;;;;;;5092477;28;20389;-84
2022/12/07 13:02:15;;;;;;;5.65;1.05;;;16.00;71.50;;;;;;5112276;28;20078;-83
2022/12/07 13:04:52;;;;;;;2.85;0.77;;;16.30;69.20;;;;;;5094591;28;20492;-84
2022/12/07 13:07:51;;;;;;;4.72;0.57;;;16.40;68.30;;;;;;5096218;28;20437;-83
2022/12/07 13:10:28;;;;;;;6.03;1.15;;;16.60;67.80;;;;;;5108873;28;20433;-84
2022/12/07 13:13:14;;;;;;;5.22;0.90;;;16.80;65.90;;;;;;5095561;28;20027;-84